Issaquah, WA

3:37 PM PST on January 20, 2017 (GMT -0800)
Olde Town Issaquah | | Change Station

Elev 174 ft 47.53 °N, 122.03 °W | Updated 12 seconds ago

Overcast
Overcast
52.2 °F
Feels Like 52.2 °F
N
0.2
Wind Variable Wind from NNW
Gusts 2.5 mph

Today
High -- | Low -- °F
--% Chance of Precip.
Yesterday
High -- | Low -- °F
Precip. -- in
Pressure 29.11 in
Visibility 10.0 miles
Clouds Mostly Cloudy 10000 ft
Dew Point 29 °F
Humidity 41%
Rainfall 0.00 in
Snow Depth Not available.
7:47 AM 4:51 PM
Last Quarter, 40% visible
METAR KRNT 202253Z 09007KT 10SM BKN100 11/M01 A2909 RMK AO2 SLP856 T01111006
Pressure 29.11 in
Visibility 10.0 miles
Clouds Mostly Cloudy 10000 ft
Dew Point 29 °F
Humidity 41%
Rainfall 0.00 in
Snow Depth Not available.
7:47 AM 4:51 PM
Last Quarter, 40% visible
METAR KRNT 202253Z 09007KT 10SM BKN100 11/M01 A2909 RMK AO2 SLP856 T01111006

Get Your Daily Forecast Email!

Thanks for signing up!

Be on the lookout for a verification email in your inbox.

You'll start receiving the daily forecast at 8 AM.

×

10-Day Weather Forecast

Almanac

Astronomy

Jan. 20, 2017 Rise Set
Actual Time
Civil Twilight
Nautical Twilight
Astronomical Twilight
Moon
Length of Visible Light
Length of Day
Tomorrow will be .
, % of the Moon is Illuminated

Today's Extremes

State Highs State Lows

Community

WunderPhotos

Upload Photos

1,962,540 photos uploaded!

WunderBlog® & News

Nearby

Air Quality

  Air Quality AQ Index Pollutant
Not available.

Snow Depth

Station Depth Elevation

Earthquake Activity

City Distance Mag. Time & Date
Minimum magnitude displayed is 2.5.

Coastal Water Temperatures

Place Temperature

Stations

Nearby Weather Stations

Station Location Temp. Windchill Dew Point Humidity Wind Precip. Elev Updated Type
                   

Watches & Warnings

There are currently no watches in effect.